Atwater, Illinois
Current Conditions -  °F | °C
As of 5:55 AM on Friday 24 Oct 2014 (Local Time) from K3LF Reporting Station
Scattered Clouds Scattered Clouds  
Wind Chill: 11°   Ceiling: Unl
Heat Index: 11°   Visibility: 10mi
Dew Point:   Wind: 3mph
Humidity: 85%   Direction: 250°WSW
Pressure: 30.08"   Gusts: NA
Location:  39.33°N, 89.72°W
Report Text: K3LF 241055Z AUTO 25003KT 10SM SCT055 11/09 A3008 RMK AO2 T01100086
Loading
Personal Weather Stations






























Interactive Weather Map
Tropical Storm Tracking
New forecast layout! Learn more

10-Day Weather Forecast

Advertisements
Track Severe Weather on mobile